createdAt,value
2018-03-29T00:09:39.248Z,87.70
2018-03-29T00:12:06.888Z,87.60
2018-03-29T00:14:35.786Z,85.40
2018-03-29T00:17:03.306Z,85.40
2018-03-29T00:19:30.857Z,84.70
2018-03-29T00:21:58.411Z,85.80
2018-03-29T00:24:26.006Z,84.90
2018-03-29T00:26:54.293Z,84.10
2018-03-29T00:29:22.729Z,84.10
2018-03-29T00:31:50.314Z,84.00
2018-03-29T00:34:17.837Z,83.50
2018-03-29T00:36:45.390Z,82.50
2018-03-29T00:39:13.177Z,82.00
2018-03-29T00:41:40.685Z,81.30
2018-03-29T00:44:08.205Z,81.10
2018-03-29T00:46:36.206Z,82.80
2018-03-29T00:49:04.558Z,81.60
2018-03-29T00:51:32.070Z,81.90
2018-03-29T00:53:59.580Z,82.20
2018-03-29T00:56:27.086Z,81.90
2018-03-29T00:58:54.638Z,81.50
2018-03-29T01:01:22.171Z,81.10
2018-03-29T01:03:50.446Z,82.20
2018-03-29T01:06:18.959Z,82.10
2018-03-29T01:08:46.487Z,82.10
2018-03-29T01:11:14.788Z,81.30
2018-03-29T01:13:42.303Z,81.30
2018-03-29T01:16:09.836Z,81.90
2018-03-29T01:18:37.810Z,82.60
2018-03-29T01:21:05.398Z,82.60
2018-03-29T01:23:32.930Z,81.40
2018-03-29T01:26:00.486Z,81.90
2018-03-29T01:28:28.324Z,81.30
2018-03-29T01:30:55.825Z,82.00
2018-03-29T01:33:23.399Z,81.90
2018-03-29T01:35:51.426Z,82.50
2018-03-29T01:38:19.078Z,81.60
2018-03-29T01:40:46.622Z,81.30
2018-03-29T01:43:14.137Z,81.70
2018-03-29T01:45:41.653Z,81.90
2018-03-29T01:48:09.157Z,81.60
2018-03-29T01:50:36.686Z,82.10
2018-03-29T01:53:04.187Z,82.50
2018-03-29T02:08:37.540Z,84.40
2018-03-29T02:11:05.067Z,84.40
2018-03-29T02:13:37.596Z,82.60
2018-03-29T02:16:05.101Z,82.70
2018-03-29T02:18:33.377Z,81.30
2018-03-29T02:21:00.885Z,81.30
2018-03-29T02:23:28.429Z,80.90
2018-03-29T02:25:55.936Z,80.90
2018-03-29T02:28:24.226Z,80.30
2018-03-29T02:30:52.549Z,80.70
2018-03-29T02:33:20.146Z,80.50
2018-03-29T02:35:48.478Z,79.50
2018-03-29T02:38:16.006Z,79.50
2018-03-29T02:40:44.284Z,79.00
2018-03-29T02:43:11.812Z,79.00
2018-03-29T02:45:39.328Z,77.90
2018-03-29T02:48:12.886Z,77.30
2018-03-29T02:50:41.169Z,76.70
2018-03-29T02:53:09.456Z,76.30
2018-03-29T02:55:37.841Z,76.90
2018-03-29T02:58:06.110Z,76.70
2018-03-29T03:00:34.469Z,75.80
2018-03-29T03:03:02.761Z,76.20
2018-03-29T03:05:31.040Z,75.80
2018-03-29T03:07:59.326Z,76.60
2018-03-29T03:10:26.872Z,76.60
2018-03-29T03:22:44.421Z,76.50
2018-03-29T03:25:11.936Z,79.60
2018-03-29T03:27:44.304Z,78.90
2018-03-29T03:30:11.859Z,78.90
2018-03-29T03:32:40.144Z,79.60
2018-03-29T03:35:08.542Z,79.20
2018-03-29T03:37:36.094Z,79.30
2018-03-29T03:40:03.733Z,79.70
2018-03-29T03:42:32.644Z,79.70
2018-03-29T03:45:00.163Z,79.70
2018-03-29T03:47:27.875Z,79.60
2018-03-29T03:49:55.394Z,80.10
2018-03-29T03:52:23.087Z,80.20
2018-03-29T03:54:51.052Z,80.00
2018-03-29T04:10:19.036Z,80.50
2018-03-29T04:12:47.322Z,81.30
2018-03-29T04:15:16.070Z,80.30
2018-03-29T04:17:45.403Z,79.20
2018-03-29T04:20:14.000Z,79.20
2018-03-29T04:22:41.674Z,78.00
2018-03-29T04:25:13.278Z,77.90
2018-03-29T04:27:41.557Z,77.60
2018-03-29T04:30:09.846Z,77.60
2018-03-29T04:32:37.404Z,77.60
2018-03-29T04:35:05.240Z,78.00
2018-03-29T04:37:36.551Z,77.30
2018-03-29T04:40:04.068Z,77.90
2018-03-29T04:42:33.087Z,78.60
2018-03-29T04:45:00.731Z,78.60
2018-03-29T04:47:28.361Z,79.30
2018-03-29T04:49:55.883Z,80.00
2018-03-29T04:52:23.845Z,80.40
2018-03-29T04:54:51.384Z,80.50
2018-03-29T04:57:19.623Z,80.50
2018-03-29T04:59:47.887Z,80.90
2018-03-29T05:02:16.443Z,80.20
2018-03-29T05:04:44.374Z,80.50
2018-03-29T05:07:12.660Z,79.00
2018-03-29T05:09:40.169Z,79.00
2018-03-29T05:12:07.700Z,80.60
2018-03-29T05:14:35.239Z,81.40
2018-03-29T05:17:02.761Z,81.20
2018-03-29T05:19:30.281Z,81.10
2018-03-29T05:21:57.805Z,82.00
2018-03-29T05:24:26.087Z,82.40
2018-03-29T05:26:55.720Z,82.30
2018-03-29T05:42:28.309Z,82.30
2018-03-29T05:44:55.831Z,84.40
2018-03-29T05:47:24.140Z,83.20
2018-03-29T05:49:51.671Z,82.10
2018-03-29T05:52:20.029Z,81.40
2018-03-29T05:54:48.993Z,80.10
2018-03-29T05:57:16.542Z,80.10
2018-03-29T05:59:44.074Z,79.00
2018-03-29T06:02:11.595Z,78.00
2018-03-29T06:04:39.914Z,78.40
2018-03-29T06:07:08.338Z,78.20
2018-03-29T06:09:35.852Z,77.10
2018-03-29T06:12:03.385Z,76.90
2018-03-29T06:14:37.496Z,76.20
2018-03-29T06:17:06.780Z,75.60
2018-03-29T06:19:34.278Z,75.60
2018-03-29T06:22:02.598Z,75.50
2018-03-29T06:24:34.057Z,75.70
2018-03-29T06:27:02.393Z,74.20
2018-03-29T06:29:30.229Z,74.10
2018-03-29T06:31:58.639Z,72.90
2018-03-29T06:34:26.156Z,72.90
2018-03-29T06:36:54.486Z,72.70
2018-03-29T06:39:21.993Z,72.70
2018-03-29T06:41:53.861Z,72.60
2018-03-29T06:44:22.180Z,70.90
2018-03-29T06:46:49.733Z,70.80
2018-03-29T06:49:17.546Z,72.10
2018-03-29T06:51:49.405Z,70.50
2018-03-29T06:54:17.840Z,70.60
2018-03-29T06:56:46.154Z,70.70
2018-03-29T06:59:14.223Z,69.30
2018-03-29T07:01:41.783Z,70.50
2018-03-29T07:04:09.737Z,70.00
2018-03-29T07:06:37.632Z,70.20
2018-03-29T07:09:06.740Z,70.30
2018-03-29T07:11:34.271Z,70.60
2018-03-29T07:14:02.390Z,71.00
2018-03-29T07:16:30.947Z,70.40
2018-03-29T07:18:59.337Z,70.40
2018-03-29T07:21:26.898Z,70.70
2018-03-29T07:23:54.482Z,70.60
2018-03-29T07:26:22.595Z,70.20
2018-03-29T07:28:50.140Z,70.10
2018-03-29T07:31:19.023Z,69.60
2018-03-29T07:33:46.840Z,69.50
2018-03-29T07:36:14.360Z,69.20
2018-03-29T07:38:42.616Z,69.00
2018-03-29T07:41:10.145Z,69.30
2018-03-29T07:43:38.424Z,68.30
2018-03-29T07:46:07.663Z,68.60
2018-03-29T07:48:39.774Z,68.60
2018-03-29T07:51:07.992Z,68.70
2018-03-29T07:53:36.098Z,67.20
2018-03-29T07:56:04.211Z,66.80
2018-03-29T07:58:32.491Z,67.40
2018-03-29T08:01:01.570Z,66.40
2018-03-29T08:03:29.605Z,66.50
2018-03-29T08:05:58.005Z,67.40
2018-03-29T08:08:26.105Z,66.40
2018-03-29T08:10:53.637Z,64.90
2018-03-29T08:13:22.209Z,61.40
2018-03-29T08:15:49.730Z,61.70
2018-03-29T08:18:17.699Z,61.30
2018-03-29T08:20:45.231Z,61.00
2018-03-29T08:23:12.756Z,62.70
2018-03-29T08:25:40.279Z,63.80
2018-03-29T08:28:07.811Z,62.50
2018-03-29T08:30:36.323Z,63.70
2018-03-29T08:33:08.087Z,66.30
2018-03-29T08:35:40.176Z,65.00
2018-03-29T08:38:07.684Z,65.00
2018-03-29T08:40:36.520Z,65.70
2018-03-29T08:43:04.544Z,65.60
2018-03-29T08:45:33.692Z,66.10
2018-03-29T08:48:01.252Z,66.10
2018-03-29T08:50:28.753Z,66.20
2018-03-29T08:52:57.236Z,66.50
2018-03-29T08:55:25.388Z,66.20
2018-03-29T08:57:52.927Z,68.00
2018-03-29T09:00:20.443Z,66.90
2018-03-29T09:02:53.642Z,66.70
2018-03-29T09:05:23.391Z,67.10
2018-03-29T09:07:52.219Z,67.10
2018-03-29T09:10:20.569Z,68.90
2018-03-29T09:12:48.153Z,68.50
2018-03-29T09:15:15.678Z,67.70
2018-03-29T09:17:43.315Z,67.80
2018-03-29T09:20:10.846Z,67.70
2018-03-29T09:22:43.018Z,66.90
2018-03-29T09:25:11.305Z,66.10
2018-03-29T09:27:39.603Z,65.70
2018-03-29T09:30:10.698Z,65.70
2018-03-29T09:32:38.230Z,63.40
2018-03-29T09:35:05.769Z,63.40
2018-03-29T09:37:33.306Z,58.80
2018-03-29T09:40:01.714Z,54.60
2018-03-29T09:42:29.288Z,54.50
2018-03-29T09:44:57.185Z,54.70
2018-03-29T09:47:25.710Z,54.90
2018-03-29T09:49:53.783Z,56.00
2018-03-29T09:52:21.321Z,58.10
2018-03-29T09:54:49.630Z,59.70
2018-03-29T09:57:17.144Z,59.70
2018-03-29T09:59:45.563Z,59.50
2018-03-29T10:02:19.773Z,59.50
2018-03-29T10:04:52.883Z,61.10
2018-03-29T10:07:24.806Z,60.70
2018-03-29T10:22:57.381Z,60.40
2018-03-29T10:25:25.692Z,66.30
2018-03-29T10:27:53.250Z,66.20
2018-03-29T10:30:21.267Z,66.50
2018-03-29T10:32:48.833Z,67.70
2018-03-29T10:35:17.163Z,67.80
2018-03-29T10:37:44.690Z,67.50
2018-03-29T10:40:12.989Z,68.20
2018-03-29T10:42:41.129Z,68.20
2018-03-29T10:45:09.422Z,69.40
2018-03-29T10:47:38.805Z,68.70
2018-03-29T10:50:11.402Z,72.60
2018-03-29T10:52:38.920Z,72.40
2018-03-29T10:55:06.851Z,72.40
2018-03-29T10:57:34.373Z,72.80
2018-03-29T11:00:03.359Z,74.50
2018-03-29T11:02:31.679Z,74.50
2018-03-29T11:04:59.958Z,74.40
2018-03-29T11:07:27.481Z,74.00
2018-03-29T11:09:55.752Z,74.10
2018-03-29T11:12:24.708Z,74.40
2018-03-29T11:14:52.231Z,74.40
2018-03-29T11:17:19.783Z,73.40
2018-03-29T11:19:47.363Z,72.70
2018-03-29T11:22:15.506Z,72.30
2018-03-29T11:24:43.842Z,69.70
2018-03-29T11:27:11.382Z,69.70
2018-03-29T11:29:38.967Z,66.90
2018-03-29T11:32:06.506Z,68.80
2018-03-29T11:34:34.753Z,66.30
2018-03-29T11:37:02.293Z,66.60
2018-03-29T11:39:30.585Z,64.90
2018-03-29T11:41:58.946Z,61.60
2018-03-29T11:44:27.378Z,60.20
2018-03-29T11:46:55.141Z,61.00
2018-03-29T11:49:23.336Z,61.90
2018-03-29T11:51:51.736Z,60.80
2018-03-29T11:54:19.281Z,59.60
2018-03-29T11:56:46.829Z,59.10
2018-03-29T11:59:15.097Z,59.40
2018-03-29T12:01:42.629Z,60.60
2018-03-29T12:04:10.199Z,61.10
2018-03-29T12:06:37.728Z,62.20
2018-03-29T12:09:06.454Z,62.60
2018-03-29T12:11:34.059Z,62.70
2018-03-29T12:14:01.685Z,60.50
2018-03-29T12:16:29.791Z,58.60
2018-03-29T12:19:01.378Z,54.40
2018-03-29T12:21:30.274Z,48.70
2018-03-29T12:23:57.794Z,48.60
2018-03-29T12:26:25.347Z,47.60
2018-03-29T12:28:52.877Z,47.50
2018-03-29T12:31:20.396Z,49.80
2018-03-29T12:33:48.747Z,51.40
2018-03-29T12:36:16.298Z,51.40
2018-03-29T12:38:47.703Z,51.70
2018-03-29T12:41:15.238Z,53.30
2018-03-29T12:43:43.562Z,55.00
2018-03-29T12:46:11.991Z,55.80
2018-03-29T12:48:39.518Z,57.20
2018-03-29T12:51:07.081Z,57.10
2018-03-29T12:53:35.139Z,58.10
2018-03-29T12:56:02.677Z,57.80
2018-03-29T12:58:30.214Z,58.30
2018-03-29T13:00:59.855Z,56.40
2018-03-29T13:03:27.824Z,56.30
2018-03-29T13:05:55.409Z,57.30
2018-03-29T13:08:22.914Z,57.20
2018-03-29T13:10:51.702Z,56.10
2018-03-29T13:13:20.004Z,54.90
2018-03-29T13:15:47.565Z,54.90
2018-03-29T13:18:15.129Z,55.70
2018-03-29T13:20:43.355Z,54.60
2018-03-29T13:23:10.902Z,53.90
2018-03-29T13:25:38.446Z,54.70
2018-03-29T13:28:05.985Z,55.60
2018-03-29T13:30:33.520Z,55.40
2018-03-29T13:33:09.886Z,57.10
2018-03-29T13:35:38.191Z,59.10
2018-03-29T13:38:05.714Z,59.10
2018-03-29T13:40:34.013Z,61.20
2018-03-29T13:43:05.484Z,61.20
2018-03-29T13:45:33.040Z,63.10
2018-03-29T13:48:00.577Z,60.60
2018-03-29T13:50:28.116Z,57.60
2018-03-29T13:52:56.442Z,54.40
2018-03-29T13:55:23.972Z,54.40
2018-03-29T13:57:55.943Z,52.50
2018-03-29T14:00:23.466Z,52.90
2018-03-29T14:02:51.856Z,53.20
2018-03-29T14:05:21.136Z,52.90
2018-03-29T14:07:48.701Z,52.90
2018-03-29T14:10:17.098Z,51.70
2018-03-29T14:12:46.214Z,51.80
2018-03-29T14:15:13.738Z,51.80
2018-03-29T14:17:41.264Z,51.30
2018-03-29T14:20:08.804Z,51.00
2018-03-29T14:22:37.299Z,52.40
2018-03-29T14:25:05.158Z,52.20
2018-03-29T14:27:36.991Z,53.50
2018-03-29T14:30:06.026Z,55.20
2018-03-29T14:32:33.563Z,55.10
2018-03-29T14:35:01.092Z,55.40
2018-03-29T14:37:33.538Z,56.70
2018-03-29T14:40:01.531Z,56.70
2018-03-29T14:42:29.852Z,57.00
2018-03-29T14:44:57.396Z,56.90
2018-03-29T14:47:24.925Z,57.70
2018-03-29T14:49:52.476Z,57.40
2018-03-29T14:52:20.013Z,56.70
2018-03-29T14:54:47.564Z,55.60
2018-03-29T14:57:15.077Z,54.20
2018-03-29T14:59:43.395Z,52.90
2018-03-29T15:02:10.935Z,52.80
2018-03-29T15:04:38.476Z,54.70
2018-03-29T15:07:06.753Z,57.30
2018-03-29T15:09:35.117Z,58.70
2018-03-29T15:12:02.662Z,58.60
2018-03-29T15:14:30.285Z,59.40
2018-03-29T15:16:57.842Z,59.10
2018-03-29T15:19:25.645Z,56.90
2018-03-29T15:21:53.170Z,57.90
2018-03-29T15:24:20.704Z,55.90
2018-03-29T15:26:49.016Z,47.80
2018-03-29T15:29:16.530Z,47.80
2018-03-29T15:31:44.814Z,43.80
2018-03-29T15:34:13.092Z,41.90
2018-03-29T15:36:41.603Z,41.70
2018-03-29T15:39:09.194Z,41.60
2018-03-29T15:41:36.713Z,44.50
2018-03-29T15:44:04.337Z,46.10
2018-03-29T15:46:31.924Z,45.70
2018-03-29T15:49:00.196Z,48.60
2018-03-29T15:51:28.495Z,50.60
2018-03-29T15:53:56.028Z,50.60
2018-03-29T15:56:24.336Z,53.50
2018-03-29T15:58:51.873Z,53.50
2018-03-29T16:01:20.201Z,56.50
2018-03-29T16:03:47.769Z,56.50
2018-03-29T16:06:15.305Z,56.50
2018-03-29T16:08:42.859Z,59.00
2018-03-29T16:11:11.040Z,60.00
2018-03-29T16:13:38.545Z,61.10
2018-03-29T16:16:06.888Z,61.40
2018-03-29T16:18:34.713Z,61.40
2018-03-29T16:21:02.554Z,61.80
2018-03-29T16:23:30.079Z,62.10
2018-03-29T16:25:57.598Z,63.20
2018-03-29T16:28:25.141Z,63.40
2018-03-29T16:30:53.421Z,64.30
2018-03-29T16:33:21.721Z,63.70
2018-03-29T16:35:49.302Z,63.70
2018-03-29T16:38:16.830Z,63.40
2018-03-29T16:40:45.149Z,63.70
2018-03-29T16:43:12.671Z,63.70
2018-03-29T16:45:40.198Z,63.50
2018-03-29T16:48:07.708Z,63.90
2018-03-29T16:50:35.232Z,63.70
2018-03-29T16:53:03.885Z,62.40
2018-03-29T16:55:31.390Z,62.40
2018-03-29T16:57:58.916Z,63.40
2018-03-29T17:00:26.436Z,62.60
2018-03-29T17:02:53.997Z,63.50
2018-03-29T17:05:21.518Z,63.20
2018-03-29T17:07:49.836Z,64.20
2018-03-29T17:10:17.349Z,64.20
2018-03-29T17:12:45.682Z,65.00
2018-03-29T17:15:13.785Z,65.00
2018-03-29T17:17:41.312Z,65.00
2018-03-29T17:20:08.832Z,65.10
2018-03-29T17:22:40.980Z,64.80
2018-03-29T17:25:09.314Z,65.10
2018-03-29T17:27:36.864Z,65.10
2018-03-29T17:30:04.401Z,65.60
2018-03-29T17:32:32.028Z,65.60
2018-03-29T17:34:59.604Z,66.50
2018-03-29T17:37:27.888Z,66.60
2018-03-29T17:39:56.210Z,66.80
2018-03-29T17:42:23.736Z,66.80
2018-03-29T17:44:51.273Z,66.80
2018-03-29T17:47:19.594Z,68.20
2018-03-29T17:49:47.359Z,68.20
2018-03-29T17:52:15.644Z,68.80
2018-03-29T17:54:43.198Z,69.10
2018-03-29T17:57:10.854Z,69.80
2018-03-29T17:59:38.538Z,70.60
2018-03-29T18:02:06.089Z,70.90
2018-03-29T18:04:33.660Z,71.30
2018-03-29T18:16:51.304Z,71.70
2018-03-29T18:19:19.600Z,76.40
2018-03-29T18:34:52.173Z,76.30
2018-03-29T18:37:19.735Z,77.90
2018-03-29T18:39:47.258Z,77.80
2018-03-29T18:42:15.586Z,76.70
2018-03-29T18:44:43.104Z,76.30
2018-03-29T18:47:11.742Z,75.90
2018-03-29T18:49:39.297Z,75.90
2018-03-29T18:52:06.831Z,75.30
2018-03-29T19:07:39.407Z,75.40
2018-03-29T19:10:06.930Z,77.70
2018-03-29T19:12:36.259Z,76.40
2018-03-29T19:15:03.782Z,76.40
2018-03-29T19:17:32.674Z,75.60
2018-03-29T19:20:00.188Z,75.60
2018-03-29T19:22:28.255Z,75.70
2018-03-29T19:24:55.815Z,74.90
2018-03-29T19:27:23.900Z,74.80
2018-03-29T19:29:51.430Z,74.80
2018-03-29T19:32:18.966Z,75.00
2018-03-29T19:34:47.248Z,74.90
2018-03-29T19:37:15.556Z,75.00
2018-03-29T19:39:43.805Z,75.00
2018-03-29T19:42:12.127Z,74.80
2018-03-29T19:44:39.667Z,74.70
2018-03-29T19:47:07.229Z,74.60
2018-03-29T19:49:34.777Z,75.00
2018-03-29T19:52:02.315Z,75.10
2018-03-29T19:54:30.624Z,75.40
2018-03-29T19:56:58.200Z,75.40
2018-03-29T19:59:25.754Z,74.80
2018-03-29T20:01:53.276Z,75.30
2018-03-29T20:04:21.898Z,75.60
2018-03-29T20:06:49.424Z,75.60
2018-03-29T20:09:17.768Z,76.00
2018-03-29T20:11:45.346Z,75.90
2018-03-29T20:14:12.899Z,75.90
2018-03-29T20:16:40.447Z,75.50
2018-03-29T20:19:07.965Z,75.50
2018-03-29T20:21:35.509Z,75.10
2018-03-29T20:24:03.050Z,75.20
2018-03-29T20:26:31.962Z,74.90
2018-03-29T20:29:00.013Z,74.90
2018-03-29T20:31:28.321Z,75.50
2018-03-29T20:33:55.875Z,75.50
2018-03-29T20:36:23.406Z,75.20
2018-03-29T20:38:51.712Z,75.00
2018-03-29T20:41:19.290Z,74.90
2018-03-29T20:43:46.855Z,74.80
2018-03-29T20:46:14.388Z,75.10
2018-03-29T20:48:41.912Z,75.10
2018-03-29T20:51:09.490Z,75.50
2018-03-29T20:53:37.796Z,75.60
2018-03-29T20:56:05.327Z,75.60
2018-03-29T20:58:33.624Z,76.90
2018-03-29T21:01:01.182Z,76.90
2018-03-29T21:03:28.706Z,76.70
2018-03-29T21:05:56.952Z,76.70
2018-03-29T21:08:24.506Z,76.60
2018-03-29T21:10:52.096Z,76.70
2018-03-29T21:13:19.656Z,76.60
2018-03-29T21:15:47.498Z,77.10
2018-03-29T21:18:15.059Z,76.70
2018-03-29T21:20:42.576Z,77.20
2018-03-29T21:23:11.366Z,77.40
2018-03-29T21:25:39.665Z,77.20
2018-03-29T21:28:07.193Z,77.20
2018-03-29T21:30:35.529Z,77.40
2018-03-29T21:33:04.285Z,77.00
2018-03-29T21:35:31.855Z,76.90
2018-03-29T21:37:59.970Z,76.70
2018-03-29T21:40:28.089Z,76.40
2018-03-29T21:42:55.614Z,76.70
2018-03-29T21:45:23.149Z,76.80
2018-03-29T21:47:52.198Z,77.50
2018-03-29T21:50:23.569Z,77.00
2018-03-29T21:52:55.233Z,76.80
2018-03-29T21:55:22.761Z,76.90
2018-03-29T21:57:50.982Z,76.80
2018-03-29T22:00:19.315Z,77.30
2018-03-29T22:02:46.843Z,77.20
2018-03-29T22:05:14.707Z,77.20
2018-03-29T22:07:42.402Z,77.20
2018-03-29T22:10:11.523Z,77.50
2018-03-29T22:12:39.058Z,78.10
2018-03-29T22:15:06.614Z,77.80
2018-03-29T22:17:34.893Z,78.30
2018-03-29T22:20:03.198Z,78.10
2018-03-29T22:22:30.762Z,78.00
2018-03-29T22:24:58.329Z,78.20
2018-03-29T22:27:25.881Z,77.70
2018-03-29T22:29:53.486Z,77.70
2018-03-29T22:32:21.267Z,78.00
2018-03-29T22:34:49.436Z,78.00
2018-03-29T22:37:17.763Z,77.80
2018-03-29T22:39:45.294Z,77.80
2018-03-29T22:42:13.274Z,77.10
2018-03-29T22:44:40.810Z,77.10
2018-03-29T22:47:09.117Z,77.80
2018-03-29T22:49:36.622Z,77.60
2018-03-29T22:52:04.163Z,77.50
2018-03-29T22:54:35.779Z,77.30
2018-03-29T22:57:03.301Z,77.80
2018-03-29T22:59:30.840Z,78.30
2018-03-29T23:01:58.421Z,78.40
2018-03-29T23:04:25.948Z,78.60
2018-03-29T23:06:53.685Z,78.80
2018-03-29T23:09:21.206Z,78.80
2018-03-29T23:11:49.085Z,78.80
2018-03-29T23:14:17.373Z,78.10
2018-03-29T23:16:45.828Z,77.40
2018-03-29T23:19:13.368Z,77.30
2018-03-29T23:21:42.072Z,77.30
2018-03-29T23:24:09.612Z,77.40
2018-03-29T23:26:37.792Z,77.40
2018-03-29T23:29:05.342Z,77.30
2018-03-29T23:31:32.869Z,77.50
2018-03-29T23:34:01.063Z,77.90
2018-03-29T23:36:28.590Z,77.80
2018-03-29T23:38:57.818Z,78.20
2018-03-29T23:41:25.940Z,78.10
2018-03-29T23:43:53.963Z,78.20
2018-03-29T23:46:21.496Z,78.30
2018-03-29T23:48:49.047Z,77.50
2018-03-29T23:51:17.353Z,78.70
2018-03-29T23:53:45.302Z,78.70
2018-03-29T23:56:12.862Z,78.30
2018-03-29T23:58:40.421Z,78.10
